Grenfell, Canada
Current Conditions -  °F | °C
As of 12:00 AM on Sunday 26 Oct 2014 (Local Time) from CYQV Reporting Station
Broken Clouds Broken Clouds  
Wind Chill: 36°   Ceiling: 16000
Heat Index: 36°   Visibility: 9mi
Dew Point: 28°   Wind: 3mph
Humidity: 75%   Direction: 90°E
Pressure: 29.86"   Gusts: NA
Location:  50.42°N, 102.92°W
Report Text: CYQV 260600Z AUTO 09003KT 9SM BKN160 02/M02 A2986 RMK SLP128
Loading
Personal Weather Stations






























Interactive Weather Map
Tropical Storm Tracking
New forecast layout! Learn more

10-Day Weather Forecast

Advertisements
Track Severe Weather on mobile